Nevsehir, Turkey
Current Conditions -  °F | °C
As of 5:20 PM on Friday 19 Dec 2014 (Local Time) from LTAZ Reporting Station
Broken Clouds Broken Clouds  
Wind Chill:   Ceiling: 3000
Heat Index:   Visibility: 6mi
Dew Point:   Wind: 2mph
Humidity: 87%   Direction: NA
Pressure: 30.12"   Gusts: NA
Location:  38.63°N, 34.72°E
Report Text: LTAZ 191420Z VRB02KT 9999 FEW015 BKN030 07/05 Q1020
Loading
Personal Weather Stations






























Interactive Weather Map New forecast layout! Learn more

10-Day Weather Forecast

Advertisements
Track Severe Weather on mobile